Time;durP1;ratioP1;P1;durP2;ratioP2;P2;SDS_P1;SDS_P2;PMS_P1;PMS_P2;Temp;Humidity;BMP_temperature;BMP_pressure;BME280_temperature;BME280_humidity;BME280_pressure;Samples;Min_cycle;Max_cycle;Signal;HPM_P1;HPM_P2
2023/05/18 00:02:05;;;;;;;2.33;0.87;;;9.10;99.90;;;;;;5097184;28;20539;-52
2023/05/18 00:04:33;;;;;;;2.83;0.95;;;9.10;99.90;;;;;;5097771;28;20044;-51
2023/05/18 00:07:02;;;;;;;2.53;0.80;;;9.10;99.90;;;;;;5097411;28;20051;-52
2023/05/18 00:09:33;;;;;;;3.63;1.05;;;9.00;99.90;;;;;;5097626;28;20048;-52
2023/05/18 00:11:59;;;;;;;4.40;1.40;;;9.00;99.90;;;;;;5096446;28;20505;-51
2023/05/18 00:14:25;;;;;;;3.67;0.90;;;8.90;99.90;;;;;;5097025;28;20048;-52
2023/05/18 00:16:54;;;;;;;2.20;0.90;;;8.90;99.90;;;;;;5097253;28;20116;-53
2023/05/18 00:19:22;;;;;;;3.03;1.30;;;8.90;99.90;;;;;;5097183;28;20040;-51
2023/05/18 00:21:49;;;;;;;4.10;1.23;;;8.80;99.90;;;;;;5097112;28;20087;-53
2023/05/18 00:24:15;;;;;;;3.15;0.90;;;8.80;99.90;;;;;;5097224;28;20044;-51
2023/05/18 00:26:43;;;;;;;3.28;0.77;;;8.80;99.90;;;;;;5097083;28;20047;-49
2023/05/18 00:29:09;;;;;;;4.97;0.80;;;8.80;99.90;;;;;;5096789;28;20048;-49
2023/05/18 00:31:37;;;;;;;4.10;0.90;;;8.70;99.90;;;;;;5095401;28;20051;-51
2023/05/18 00:34:09;;;;;;;2.42;0.68;;;8.70;99.90;;;;;;5096839;28;20048;-53
2023/05/18 00:36:36;;;;;;;2.88;0.73;;;8.70;99.90;;;;;;5095578;28;20146;-53
2023/05/18 00:39:03;;;;;;;2.92;0.90;;;8.70;99.90;;;;;;5096793;28;20056;-51
2023/05/18 00:41:29;;;;;;;4.10;0.90;;;8.70;99.90;;;;;;5096644;28;20052;-53
2023/05/18 00:43:56;;;;;;;4.50;0.75;;;8.70;99.90;;;;;;5096460;28;20129;-53
2023/05/18 00:46:23;;;;;;;3.50;0.82;;;8.60;99.90;;;;;;5096713;28;20093;-51
2023/05/18 00:48:49;;;;;;;;;;;8.70;99.90;;;;;;5097074;28;20059;-53
2023/05/18 00:51:15;;;;;;;5.05;0.75;;;8.60;99.90;;;;;;5096608;28;19924;-50
2023/05/18 00:53:42;;;;;;;1.85;0.77;;;8.60;99.90;;;;;;5096027;28;20168;-52
2023/05/18 00:56:09;;;;;;;2.00;0.63;;;8.70;99.90;;;;;;5096335;28;20048;-51
2023/05/18 00:58:35;;;;;;;3.30;0.80;;;8.70;99.90;;;;;;5096432;28;20048;-53
2023/05/18 01:01:01;;;;;;;2.13;0.95;;;8.70;99.90;;;;;;5096746;28;20054;-50
2023/05/18 01:03:29;;;;;;;3.25;0.90;;;8.70;99.90;;;;;;5096330;28;20050;-50
2023/05/18 01:05:56;;;;;;;2.20;0.70;;;8.70;99.90;;;;;;5096265;28;20052;-52
2023/05/18 01:08:25;;;;;;;3.55;0.80;;;8.80;99.90;;;;;;5096077;28;20048;-52
2023/05/18 01:10:56;;;;;;;2.55;0.73;;;8.80;99.90;;;;;;5095985;28;20052;-53
2023/05/18 01:13:54;;;;;;;2.28;0.80;;;8.80;99.90;;;;;;5096427;28;20407;-53
2023/05/18 01:16:26;;;;;;;2.50;0.85;;;8.80;99.90;;;;;;5096208;28;20044;-52
2023/05/18 01:19:07;;;;;;;3.75;1.00;;;8.80;99.90;;;;;;5096008;28;20043;-50
2023/05/18 01:22:12;;;;;;;1.42;0.65;;;8.80;99.90;;;;;;5095988;28;20044;-50
2023/05/18 01:24:47;;;;;;;2.10;0.77;;;8.80;99.90;;;;;;5095181;28;20055;-50
2023/05/18 01:27:16;;;;;;;2.80;0.90;;;8.80;99.90;;;;;;5095861;28;20044;-51
2023/05/18 01:29:44;;;;;;;3.33;0.95;;;8.80;99.90;;;;;;5095490;28;20098;-52
2023/05/18 01:32:20;;;;;;;4.38;0.85;;;8.70;99.90;;;;;;5095736;28;20544;-50
2023/05/18 01:34:47;;;;;;;2.75;0.80;;;8.70;99.90;;;;;;5095703;28;20085;-51
2023/05/18 01:37:12;;;;;;;;;;;8.70;99.90;;;;;;5096086;28;20048;-53
2023/05/18 01:39:39;;;;;;;2.20;0.70;;;8.70;99.90;;;;;;5095485;28;19926;-53
2023/05/18 01:42:14;;;;;;;2.85;0.68;;;8.70;99.90;;;;;;5095360;28;20521;-52
2023/05/18 01:44:45;;;;;;;5.05;1.20;;;8.70;99.90;;;;;;5096215;28;20044;-51
2023/05/18 01:47:15;;;;;;;1.75;0.70;;;8.70;99.90;;;;;;5095645;28;20048;-51
2023/05/18 01:49:58;;;;;;;2.85;0.60;;;8.70;99.90;;;;;;5094644;28;20052;-52
2023/05/18 01:53:05;;;;;;;2.63;0.55;;;8.70;99.90;;;;;;5095190;28;20065;-52
2023/05/18 01:55:34;;;;;;;2.95;0.60;;;8.80;99.90;;;;;;5032897;28;20041;-52
2023/05/18 01:58:01;;;;;;;1.40;0.63;;;8.80;99.90;;;;;;5083339;28;20078;-53
2023/05/18 02:00:26;;;;;;;2.95;0.60;;;8.80;99.90;;;;;;5095092;28;20040;-52
2023/05/18 02:02:52;;;;;;;1.60;0.67;;;8.80;99.90;;;;;;5095105;28;20050;-52
2023/05/18 02:05:18;;;;;;;4.10;0.87;;;8.80;99.90;;;;;;5094334;28;20119;-52
2023/05/18 02:07:46;;;;;;;2.50;0.70;;;8.90;99.90;;;;;;5095153;28;20052;-51
2023/05/18 02:10:12;;;;;;;5.50;0.52;;;8.90;99.90;;;;;;5094075;28;20048;-50
2023/05/18 02:12:37;;;;;;;1.23;0.45;;;8.90;99.90;;;;;;5095123;28;20391;-53
2023/05/18 02:15:04;;;;;;;2.23;0.70;;;8.90;99.90;;;;;;5094864;28;20036;-53
2023/05/18 02:17:36;;;;;;;1.52;0.70;;;9.00;99.90;;;;;;5094731;28;20052;-51
2023/05/18 02:20:06;;;;;;;3.40;0.70;;;8.90;99.90;;;;;;5095144;28;20044;-53
2023/05/18 02:22:32;;;;;;;2.25;0.70;;;8.90;99.90;;;;;;5094857;28;20136;-53
2023/05/18 02:24:57;;;;;;;3.45;0.68;;;8.90;99.90;;;;;;5094790;28;20089;-53
2023/05/18 02:27:23;;;;;;;2.53;0.83;;;8.90;99.90;;;;;;5094617;28;20047;-52
2023/05/18 02:29:49;;;;;;;1.93;0.87;;;8.90;99.90;;;;;;5094535;28;20040;-52
2023/05/18 02:32:14;;;;;;;1.53;0.70;;;9.00;99.90;;;;;;5094475;28;20433;-52
2023/05/18 02:34:41;;;;;;;3.50;1.10;;;9.00;99.90;;;;;;5093527;28;20040;-52
2023/05/18 02:37:07;;;;;;;4.85;1.08;;;9.00;99.90;;;;;;5094571;28;20055;-49
2023/05/18 02:39:32;;;;;;;3.72;1.00;;;8.90;99.90;;;;;;5094738;28;20047;-54
2023/05/18 02:41:59;;;;;;;2.57;0.77;;;8.90;99.90;;;;;;5094419;28;20040;-53
2023/05/18 02:44:25;;;;;;;2.50;1.05;;;8.90;99.90;;;;;;5094357;28;20544;-50
2023/05/18 02:46:51;;;;;;;6.45;1.20;;;8.90;99.90;;;;;;5094364;28;20043;-52
2023/05/18 02:49:16;;;;;;;3.37;1.13;;;8.90;99.90;;;;;;5094511;28;20445;-53
2023/05/18 02:51:42;;;;;;;3.20;1.07;;;8.80;99.90;;;;;;5094337;28;20604;-52
2023/05/18 02:54:07;;;;;;;2.83;1.00;;;8.80;99.90;;;;;;5093200;28;20391;-52
2023/05/18 02:56:33;;;;;;;2.93;0.90;;;8.80;99.90;;;;;;5094188;28;20048;-50
2023/05/18 02:58:59;;;;;;;3.93;1.63;;;8.80;99.90;;;;;;5094062;28;20097;-53
2023/05/18 03:01:26;;;;;;;2.00;0.95;;;8.80;99.90;;;;;;5093017;28;20052;-52
2023/05/18 03:03:52;;;;;;;3.50;0.90;;;8.80;99.90;;;;;;5094069;28;20052;-52
2023/05/18 03:06:25;;;;;;;4.22;1.00;;;8.80;99.90;;;;;;5094410;28;20145;-53
2023/05/18 03:08:53;;;;;;;9.10;1.10;;;8.80;99.90;;;;;;5093169;28;20395;-51
2023/05/18 03:11:20;;;;;;;2.08;0.80;;;8.80;99.90;;;;;;5094124;28;20090;-51
2023/05/18 03:13:46;;;;;;;2.40;0.88;;;8.80;99.90;;;;;;5093974;28;20054;-52
2023/05/18 03:16:12;;;;;;;6.93;1.35;;;8.80;99.90;;;;;;5094362;28;20187;-53
2023/05/18 03:18:38;;;;;;;2.93;1.00;;;8.80;99.90;;;;;;5093984;28;20048;-53
2023/05/18 03:21:04;;;;;;;5.20;1.13;;;8.80;99.90;;;;;;5093880;28;20051;-50
2023/05/18 03:23:30;;;;;;;2.47;1.13;;;8.80;99.90;;;;;;5093970;28;20044;-52
2023/05/18 03:25:56;;;;;;;2.03;0.80;;;8.80;99.90;;;;;;5092697;28;20286;-53
2023/05/18 03:28:22;;;;;;;2.10;1.00;;;8.80;99.90;;;;;;5092540;28;20051;-52
2023/05/18 03:30:47;;;;;;;3.27;0.80;;;8.80;99.90;;;;;;5093822;28;20036;-54
2023/05/18 03:33:13;;;;;;;2.03;1.10;;;8.80;99.90;;;;;;5093697;28;20079;-53
2023/05/18 03:35:39;;;;;;;4.00;1.10;;;8.80;99.90;;;;;;5093455;28;20123;-53
2023/05/18 03:38:06;;;;;;;3.65;1.50;;;8.80;99.90;;;;;;5093721;28;20060;-54
2023/05/18 03:40:31;;;;;;;2.55;0.80;;;8.80;99.90;;;;;;5093630;28;20051;-53
2023/05/18 03:42:57;;;;;;;2.87;0.97;;;8.70;99.90;;;;;;5093588;28;20475;-52
2023/05/18 03:45:23;;;;;;;3.90;1.00;;;8.70;99.90;;;;;;5092407;28;20388;-53
2023/05/18 03:47:49;;;;;;;7.83;1.60;;;8.70;99.90;;;;;;5092881;28;20048;-53
2023/05/18 03:50:15;;;;;;;3.20;1.10;;;8.60;99.90;;;;;;5093361;28;20510;-53
2023/05/18 03:52:43;;;;;;;3.70;1.00;;;8.60;99.90;;;;;;5093794;28;20357;-54
2023/05/18 03:55:10;;;;;;;3.00;1.08;;;8.60;99.90;;;;;;5093373;28;20040;-53
2023/05/18 03:57:36;;;;;;;2.58;1.23;;;8.60;99.90;;;;;;5093287;28;20079;-54
2023/05/18 04:00:06;;;;;;;3.60;1.33;;;8.60;99.90;;;;;;5093684;28;20052;-53
2023/05/18 04:02:32;;;;;;;4.13;1.20;;;8.60;99.90;;;;;;5093733;28;20040;-53
2023/05/18 04:04:58;;;;;;;2.90;1.07;;;8.70;99.90;;;;;;5093445;28;20437;-54
2023/05/18 04:07:23;;;;;;;2.13;0.73;;;8.70;99.90;;;;;;5093422;28;20040;-53
2023/05/18 04:09:50;;;;;;;4.67;1.10;;;8.70;99.90;;;;;;5093444;28;20395;-53
2023/05/18 04:12:17;;;;;;;2.13;1.10;;;8.70;99.90;;;;;;5093123;28;20123;-52
2023/05/18 04:14:48;;;;;;;2.80;1.00;;;8.70;99.90;;;;;;5093332;28;20123;-50
2023/05/18 04:17:17;;;;;;;4.07;0.95;;;8.80;99.90;;;;;;5093345;28;20459;-52
2023/05/18 04:19:43;;;;;;;5.75;1.00;;;8.80;99.90;;;;;;5093269;28;20044;-53
2023/05/18 04:22:08;;;;;;;3.43;1.00;;;8.80;99.90;;;;;;5092263;28;20048;-54
2023/05/18 04:24:35;;;;;;;3.50;0.90;;;8.80;99.90;;;;;;5093294;28;20046;-52
2023/05/18 04:27:01;;;;;;;2.60;0.82;;;8.80;99.90;;;;;;5092995;28;20479;-53
2023/05/18 04:29:28;;;;;;;2.85;1.00;;;8.80;99.90;;;;;;5096722;28;20043;-52
2023/05/18 04:31:59;;;;;;;3.35;1.02;;;8.80;99.90;;;;;;5096912;28;20048;-53
2023/05/18 04:34:26;;;;;;;5.72;0.95;;;8.80;99.90;;;;;;5096941;28;20048;-53
2023/05/18 04:36:55;;;;;;;2.20;0.85;;;8.80;99.90;;;;;;5096785;28;20056;-50
2023/05/18 04:39:24;;;;;;;2.83;0.93;;;8.80;99.90;;;;;;5096879;28;20052;-52
2023/05/18 04:41:57;;;;;;;2.53;0.90;;;8.90;99.90;;;;;;5097023;28;20081;-53
2023/05/18 04:44:30;;;;;;;2.35;1.00;;;8.80;99.90;;;;;;5096944;28;20044;-53
2023/05/18 04:46:56;;;;;;;2.60;1.10;;;8.80;99.90;;;;;;5096681;28;20426;-51
2023/05/18 04:49:21;;;;;;;6.77;1.53;;;8.90;99.90;;;;;;5095262;28;20039;-53
2023/05/18 04:51:54;;;;;;;4.27;1.07;;;8.90;99.90;;;;;;5096308;28;20052;-52
2023/05/18 04:54:31;;;;;;;3.03;0.77;;;9.00;99.90;;;;;;5096867;28;20294;-53
2023/05/18 04:56:57;;;;;;;4.67;1.07;;;9.00;99.90;;;;;;5096554;28;20127;-51
2023/05/18 04:59:25;;;;;;;;;;;9.00;99.90;;;;;;5095645;28;20044;-51
2023/05/18 05:01:54;;;;;;;5.00;1.10;;;9.00;99.90;;;;;;5096274;28;20371;-53
2023/05/18 05:04:20;;;;;;;3.80;0.70;;;9.00;99.90;;;;;;5096131;28;20035;-53
2023/05/18 05:06:46;;;;;;;1.83;0.77;;;9.00;99.90;;;;;;5096332;28;20040;-53
2023/05/18 05:09:13;;;;;;;2.00;0.77;;;9.10;99.90;;;;;;5096233;28;20050;-53
2023/05/18 05:11:39;;;;;;;;;;;9.10;99.90;;;;;;5096616;28;20102;-53
2023/05/18 05:14:05;;;;;;;1.75;0.63;;;9.00;99.90;;;;;;5096291;28;19928;-53
2023/05/18 05:16:30;;;;;;;4.23;0.70;;;9.00;99.90;;;;;;5096140;28;20494;-52
2023/05/18 05:18:56;;;;;;;2.30;0.70;;;9.00;99.90;;;;;;5095865;28;20052;-50
2023/05/18 05:21:22;;;;;;;5.53;0.80;;;9.00;99.90;;;;;;5094630;28;20044;-53
2023/05/18 05:23:48;;;;;;;2.60;0.70;;;9.00;99.90;;;;;;5095996;28;20391;-52
2023/05/18 05:26:13;;;;;;;1.70;0.60;;;9.00;99.90;;;;;;5095940;28;20376;-53
2023/05/18 05:28:39;;;;;;;2.33;0.80;;;9.00;99.90;;;;;;5095755;28;20127;-54
2023/05/18 05:31:05;;;;;;;2.55;0.70;;;9.00;99.90;;;;;;5095904;28;20052;-52
2023/05/18 05:33:31;;;;;;;4.43;1.10;;;9.00;99.90;;;;;;5095616;28;20079;-54
2023/05/18 05:35:57;;;;;;;1.45;0.60;;;9.00;99.90;;;;;;5095685;28;20515;-53
2023/05/18 05:38:23;;;;;;;2.83;0.60;;;9.10;99.90;;;;;;5095276;28;20048;-54
2023/05/18 05:40:49;;;;;;;4.68;2.10;;;9.10;99.90;;;;;;5095702;28;20043;-50
2023/05/18 05:43:14;;;;;;;3.00;0.87;;;9.10;99.90;;;;;;5095626;28;20055;-53
2023/05/18 05:45:42;;;;;;;2.67;1.00;;;9.10;99.90;;;;;;5095647;28;20532;-52
2023/05/18 05:48:08;;;;;;;1.92;0.85;;;9.20;99.90;;;;;;5095322;28;20432;-50
2023/05/18 05:50:34;;;;;;;3.67;0.60;;;9.20;99.90;;;;;;5095372;28;20529;-52
2023/05/18 05:53:00;;;;;;;3.03;0.77;;;9.20;99.90;;;;;;5095530;28;20075;-52
2023/05/18 05:55:26;;;;;;;2.90;0.70;;;9.20;99.90;;;;;;5095296;28;20102;-53
2023/05/18 05:57:51;;;;;;;4.27;1.00;;;9.30;99.90;;;;;;5095150;28;20044;-52
2023/05/18 06:00:17;;;;;;;2.57;0.77;;;9.30;99.90;;;;;;5095242;28;20288;-52
2023/05/18 06:02:43;;;;;;;3.10;1.05;;;9.30;99.90;;;;;;5095024;28;20039;-53
2023/05/18 06:05:09;;;;;;;3.37;0.80;;;9.40;99.90;;;;;;5095003;28;20084;-53
2023/05/18 06:07:35;;;;;;;4.05;0.88;;;9.40;99.90;;;;;;5095166;28;20051;-53
2023/05/18 06:10:01;;;;;;;3.70;0.90;;;9.40;99.90;;;;;;5095121;28;20483;-52
2023/05/18 06:12:27;;;;;;;1.83;0.60;;;9.40;99.90;;;;;;5094912;28;20618;-53
2023/05/18 06:14:56;;;;;;;3.93;0.83;;;9.50;99.90;;;;;;5094842;28;20098;-53
2023/05/18 06:17:25;;;;;;;3.72;1.02;;;9.50;99.90;;;;;;5094749;28;20040;-51
2023/05/18 06:19:51;;;;;;;3.92;0.60;;;9.60;99.90;;;;;;5094913;28;20044;-53
2023/05/18 06:22:17;;;;;;;2.70;0.85;;;9.60;99.90;;;;;;5094855;28;20044;-52
2023/05/18 06:24:43;;;;;;;5.17;0.80;;;9.70;99.90;;;;;;5094790;28;20138;-52
2023/05/18 06:27:08;;;;;;;2.73;0.83;;;9.70;99.90;;;;;;5094686;28;20123;-53
2023/05/18 06:29:34;;;;;;;4.90;1.07;;;9.70;99.90;;;;;;5094784;28;20055;-51
2023/05/18 06:32:00;;;;;;;3.10;0.93;;;9.80;99.90;;;;;;5094327;28;20048;-53
2023/05/18 06:34:26;;;;;;;2.78;0.80;;;9.80;99.90;;;;;;5095248;28;20040;-52
2023/05/18 06:36:52;;;;;;;;;;;9.80;99.90;;;;;;5095011;28;20075;-54
2023/05/18 06:39:18;;;;;;;3.72;1.10;;;10.00;99.90;;;;;;5093465;28;19920;-53
2023/05/18 06:41:44;;;;;;;2.87;0.63;;;10.00;99.90;;;;;;5093324;28;20054;-48
2023/05/18 06:44:10;;;;;;;3.65;0.82;;;10.10;99.90;;;;;;5094407;28;20479;-51
2023/05/18 06:46:36;;;;;;;3.20;0.90;;;10.20;99.90;;;;;;5094408;28;20048;-51
2023/05/18 06:49:02;;;;;;;6.35;1.00;;;10.30;99.90;;;;;;5093206;28;20503;-53
2023/05/18 06:51:28;;;;;;;5.50;0.70;;;10.50;99.90;;;;;;5092812;28;20476;-53
2023/05/18 06:53:53;;;;;;;3.00;1.23;;;10.70;99.90;;;;;;5094348;28;20055;-53
2023/05/18 06:56:21;;;;;;;3.97;0.67;;;10.80;99.90;;;;;;5094427;28;20126;-50
2023/05/18 06:58:46;;;;;;;2.28;0.70;;;10.80;99.90;;;;;;5094325;28;20063;-53
2023/05/18 07:01:12;;;;;;;3.67;0.70;;;10.70;99.90;;;;;;5094155;28;20391;-50
2023/05/18 07:03:38;;;;;;;1.70;0.57;;;10.60;99.90;;;;;;5093902;28;20047;-53
2023/05/18 07:06:04;;;;;;;1.77;0.67;;;10.60;99.90;;;;;;5094092;28;20612;-50
2023/05/18 07:08:30;;;;;;;2.78;0.80;;;10.50;99.90;;;;;;5094108;28;20050;-51
2023/05/18 07:10:57;;;;;;;2.05;0.60;;;10.50;99.90;;;;;;5093108;28;20066;-53
2023/05/18 07:13:23;;;;;;;3.65;0.90;;;10.40;99.90;;;;;;5092646;28;20051;-51
2023/05/18 07:15:49;;;;;;;2.88;0.70;;;10.40;99.90;;;;;;5093697;28;20091;-51
2023/05/18 07:18:15;;;;;;;1.45;0.50;;;10.40;99.90;;;;;;5094005;28;20138;-53
2023/05/18 07:20:41;;;;;;;3.27;0.80;;;10.40;99.90;;;;;;5093904;28;20044;-54
2023/05/18 07:23:06;;;;;;;3.93;0.93;;;10.30;99.90;;;;;;5094102;28;20048;-54
2023/05/18 07:25:32;;;;;;;3.57;1.33;;;10.30;99.90;;;;;;5093674;28;20611;-53
2023/05/18 07:27:58;;;;;;;3.30;0.73;;;10.30;99.90;;;;;;5093859;28;20044;-52
2023/05/18 07:30:25;;;;;;;6.93;1.10;;;10.30;99.90;;;;;;5093731;28;20475;-52
2023/05/18 07:32:51;;;;;;;2.33;0.60;;;10.30;99.90;;;;;;5093479;28;20095;-53
2023/05/18 07:35:19;;;;;;;4.30;0.80;;;10.30;99.90;;;;;;5093639;28;20109;-53
2023/05/18 07:37:45;;;;;;;6.43;0.98;;;10.30;99.90;;;;;;5092517;28;20055;-52
2023/05/18 07:40:11;;;;;;;4.03;0.98;;;10.30;99.90;;;;;;5093725;28;20560;-53
2023/05/18 07:42:40;;;;;;;3.80;1.00;;;10.30;99.90;;;;;;5093545;28;20040;-53
2023/05/18 07:45:07;;;;;;;2.30;0.60;;;10.30;99.90;;;;;;5093409;28;20146;-53
2023/05/18 07:47:33;;;;;;;4.60;1.05;;;10.40;99.90;;;;;;5093698;28;20090;-52
2023/05/18 07:49:58;;;;;;;4.60;1.02;;;10.40;99.90;;;;;;5093718;28;20391;-54
2023/05/18 07:52:24;;;;;;;3.37;0.97;;;10.40;99.90;;;;;;5093433;28;20060;-53
2023/05/18 07:54:52;;;;;;;1.55;0.60;;;10.40;99.90;;;;;;5093543;28;20439;-53
2023/05/18 07:57:18;;;;;;;5.72;0.90;;;10.40;99.90;;;;;;5093446;28;20403;-53
2023/05/18 07:59:44;;;;;;;1.88;0.68;;;10.50;99.90;;;;;;5093350;28;20059;-52
2023/05/18 08:02:10;;;;;;;3.00;0.90;;;10.50;99.90;;;;;;5093569;28;20387;-54
2023/05/18 08:04:35;;;;;;;4.23;0.80;;;10.50;99.90;;;;;;5097433;28;20051;-53
2023/05/18 08:07:02;;;;;;;4.50;0.90;;;10.60;99.90;;;;;;5096355;28;20046;-53
2023/05/18 08:09:27;;;;;;;3.80;1.15;;;10.60;99.90;;;;;;5097642;28;20441;-52
2023/05/18 08:11:53;;;;;;;4.30;1.10;;;10.60;99.90;;;;;;5097386;28;20044;-51
2023/05/18 08:14:19;;;;;;;2.87;0.87;;;10.70;99.90;;;;;;5097042;28;20126;-53
2023/05/18 08:16:45;;;;;;;2.33;0.70;;;10.60;99.90;;;;;;5097317;28;20051;-54
2023/05/18 08:19:10;;;;;;;4.87;1.20;;;10.70;99.90;;;;;;5095993;28;20043;-54
2023/05/18 08:21:36;;;;;;;4.47;0.90;;;10.70;99.90;;;;;;5097306;28;20487;-53
2023/05/18 08:24:03;;;;;;;3.73;1.00;;;10.70;99.90;;;;;;5097240;28;20082;-52
2023/05/18 08:26:28;;;;;;;5.32;0.93;;;10.70;99.90;;;;;;5097093;28;20574;-52
2023/05/18 08:28:54;;;;;;;3.20;0.80;;;10.70;99.90;;;;;;5096744;28;20127;-53
2023/05/18 08:31:20;;;;;;;3.60;1.02;;;10.70;99.90;;;;;;5096210;28;20059;-52
2023/05/18 08:33:47;;;;;;;5.15;0.75;;;10.70;99.90;;;;;;5095723;28;20433;-53
2023/05/18 08:36:13;;;;;;;2.25;0.80;;;10.80;99.90;;;;;;5096507;28;20083;-52
2023/05/18 08:38:38;;;;;;;3.22;1.00;;;10.90;99.90;;;;;;5096795;28;20095;-52
2023/05/18 08:41:10;;;;;;;4.13;0.97;;;10.90;99.90;;;;;;5096623;28;20051;-51
2023/05/18 08:43:40;;;;;;;2.15;0.88;;;10.90;99.90;;;;;;5096470;28;20104;-53
2023/05/18 08:46:27;;;;;;;2.42;1.00;;;11.00;99.90;;;;;;5096839;28;20440;-53
2023/05/18 08:48:56;;;;;;;3.60;1.13;;;11.00;99.90;;;;;;5096628;28;20123;-53
2023/05/18 08:51:24;;;;;;;3.05;0.80;;;11.10;99.90;;;;;;5096339;28;20048;-53
2023/05/18 08:53:53;;;;;;;3.40;0.93;;;11.10;99.90;;;;;;5096443;28;20048;-53
2023/05/18 08:56:22;;;;;;;5.20;1.30;;;11.20;99.90;;;;;;5096459;28;20044;-52
2023/05/18 08:58:51;;;;;;;4.43;1.13;;;11.10;99.90;;;;;;5095320;28;20040;-52
2023/05/18 09:01:17;;;;;;;3.70;0.90;;;11.20;99.90;;;;;;5096239;28;20047;-52
2023/05/18 09:03:48;;;;;;;2.30;0.90;;;11.20;99.90;;;;;;5096217;28;20122;-51
2023/05/18 09:06:14;;;;;;;2.60;1.10;;;11.30;99.90;;;;;;5096422;28;20051;-53
2023/05/18 09:08:40;;;;;;;;;;;11.30;99.90;;;;;;5097177;28;20052;-52
2023/05/18 09:11:07;;;;;;;3.88;1.02;;;11.40;99.90;;;;;;5096453;28;19926;-54
2023/05/18 09:13:32;;;;;;;5.57;1.30;;;11.40;99.90;;;;;;5095631;28;20044;-54
2023/05/18 09:15:58;;;;;;;5.57;1.20;;;11.40;99.90;;;;;;5095947;28;20047;-52
2023/05/18 09:18:24;;;;;;;2.03;0.90;;;11.40;99.90;;;;;;5096038;28;20395;-54
2023/05/18 09:20:50;;;;;;;4.17;1.37;;;11.50;99.90;;;;;;5096064;28;20160;-52
2023/05/18 09:23:16;;;;;;;3.00;0.90;;;11.50;99.90;;;;;;5095646;28;20051;-53
2023/05/18 09:25:50;;;;;;;3.53;1.08;;;11.60;99.90;;;;;;5096009;28;20110;-55
2023/05/18 09:28:35;;;;;;;3.65;1.10;;;11.60;99.90;;;;;;5095013;28;20044;-54
2023/05/18 09:31:18;;;;;;;4.75;1.35;;;11.50;99.90;;;;;;5094941;28;20051;-54
2023/05/18 09:33:45;;;;;;;2.42;0.90;;;11.60;99.90;;;;;;5096072;28;20074;-53
2023/05/18 09:36:11;;;;;;;5.82;0.90;;;11.60;99.90;;;;;;5095874;28;20084;-53
2023/05/18 09:38:39;;;;;;;2.45;0.75;;;11.60;99.90;;;;;;5095759;28;20051;-53
2023/05/18 09:41:17;;;;;;;3.45;0.77;;;11.70;99.90;;;;;;5095491;28;20395;-52
2023/05/18 09:43:45;;;;;;;4.03;1.08;;;11.70;99.90;;;;;;5095679;28;20105;-52
2023/05/18 09:46:12;;;;;;;3.58;1.05;;;11.80;99.90;;;;;;5095504;28;20054;-53
2023/05/18 09:48:46;;;;;;;2.22;0.73;;;11.80;99.90;;;;;;5094345;28;20048;-54
2023/05/18 09:51:15;;;;;;;2.47;0.98;;;11.90;99.90;;;;;;5095347;28;20487;-53
2023/05/18 09:53:42;;;;;;;2.42;0.93;;;11.90;99.90;;;;;;5094447;28;20395;-54
2023/05/18 09:56:11;;;;;;;3.60;0.85;;;11.90;99.90;;;;;;5095248;28;20449;-52
2023/05/18 09:58:38;;;;;;;4.07;1.15;;;11.90;99.90;;;;;;5095110;28;20059;-55
2023/05/18 10:01:04;;;;;;;3.72;0.93;;;12.00;99.90;;;;;;5094271;28;20517;-54
2023/05/18 10:03:35;;;;;;;3.35;1.08;;;12.10;99.90;;;;;;5095285;28;20517;-55
2023/05/18 10:06:06;;;;;;;4.07;1.20;;;12.20;99.90;;;;;;5095282;28;20048;-55
2023/05/18 10:08:32;;;;;;;3.55;1.25;;;12.40;99.90;;;;;;5095094;28;20048;-53
2023/05/18 10:10:58;;;;;;;;;;;12.50;99.90;;;;;;5095290;28;20048;-53
2023/05/18 10:13:27;;;;;;;6.68;1.40;;;12.60;99.90;;;;;;5095159;28;19927;-49
2023/05/18 10:15:55;;;;;;;2.55;1.00;;;12.70;99.90;;;;;;5093878;28;20044;-54
2023/05/18 10:18:23;;;;;;;3.08;0.88;;;12.80;99.90;;;;;;5094055;28;20044;-53
2023/05/18 10:20:51;;;;;;;3.45;0.70;;;12.80;99.90;;;;;;5094864;28;20474;-53
2023/05/18 10:23:20;;;;;;;2.42;0.77;;;12.80;99.90;;;;;;5094584;28;20050;-53
2023/05/18 10:25:47;;;;;;;2.47;0.90;;;12.80;99.90;;;;;;5093807;28;20036;-51
2023/05/18 10:28:24;;;;;;;3.67;0.80;;;12.70;99.90;;;;;;5094944;28;20048;-54
2023/05/18 10:30:53;;;;;;;2.90;1.00;;;12.70;99.90;;;;;;5094865;28;20048;-52
2023/05/18 10:33:21;;;;;;;2.03;0.90;;;12.60;99.90;;;;;;5093810;28;20052;-53
2023/05/18 10:35:48;;;;;;;1.80;0.70;;;12.50;99.90;;;;;;5076796;28;20052;-52
2023/05/18 10:38:19;;;;;;;2.95;0.88;;;12.50;99.90;;;;;;5094551;28;20064;-53
2023/05/18 10:40:47;;;;;;;4.53;1.42;;;12.50;99.90;;;;;;5094733;28;20418;-55
2023/05/18 10:43:15;;;;;;;3.05;1.02;;;12.50;99.90;;;;;;5094511;28;20044;-54
2023/05/18 10:45:45;;;;;;;2.47;0.80;;;12.40;99.90;;;;;;5093409;28;20449;-54
2023/05/18 10:48:12;;;;;;;3.25;0.90;;;12.40;99.90;;;;;;5094308;28;20040;-55
2023/05/18 10:50:40;;;;;;;2.40;0.80;;;12.40;99.90;;;;;;5094101;28;20097;-55
2023/05/18 10:53:05;;;;;;;1.70;0.73;;;12.40;99.90;;;;;;5094322;28;20044;-53
2023/05/18 10:55:31;;;;;;;2.30;0.60;;;12.40;99.90;;;;;;5094573;28;20384;-53
2023/05/18 10:58:09;;;;;;;4.85;1.33;;;12.40;99.90;;;;;;5093344;28;20083;-54
2023/05/18 11:00:38;;;;;;;1.95;0.90;;;12.40;99.90;;;;;;5093138;28;20518;-52
2023/05/18 11:03:11;;;;;;;2.42;0.82;;;12.40;99.90;;;;;;5094000;28;20090;-56
2023/05/18 11:05:38;;;;;;;3.17;1.00;;;12.40;99.90;;;;;;5094181;28;20098;-55
2023/05/18 11:08:04;;;;;;;5.00;0.80;;;12.30;99.90;;;;;;5094141;28;20055;-53
2023/05/18 11:10:40;;;;;;;2.35;0.90;;;12.30;99.90;;;;;;5076303;28;20056;-55
2023/05/18 11:13:06;;;;;;;2.28;0.90;;;12.40;99.90;;;;;;5094134;28;20090;-54
2023/05/18 11:15:51;;;;;;;;;;;12.40;99.90;;;;;;5094305;28;20502;-55
2023/05/18 11:18:16;;;;;;;5.40;0.80;;;12.40;99.90;;;;;;5094163;28;19965;-55
2023/05/18 11:20:45;;;;;;;3.57;1.00;;;12.40;99.90;;;;;;5093958;28;20445;-52
2023/05/18 11:23:13;;;;;;;2.95;1.20;;;12.50;99.90;;;;;;5093939;28;20052;-55
2023/05/18 11:25:42;;;;;;;3.45;0.80;;;12.70;99.90;;;;;;5093884;28;20109;-56
2023/05/18 11:28:10;;;;;;;3.47;1.17;;;12.80;99.90;;;;;;5093604;28;20052;-55
2023/05/18 11:30:35;;;;;;;4.07;1.10;;;12.80;99.90;;;;;;5092871;28;20049;-55
2023/05/18 11:33:08;;;;;;;3.57;1.00;;;12.80;99.90;;;;;;5093621;28;20067;-52
2023/05/18 11:35:52;;;;;;;3.40;0.80;;;12.80;99.90;;;;;;5093741;28;20043;-55
2023/05/18 11:38:18;;;;;;;2.20;1.00;;;12.80;99.90;;;;;;5099352;28;20517;-54
2023/05/18 11:40:46;;;;;;;4.43;1.00;;;12.80;99.90;;;;;;5100288;28;20039;-54
2023/05/18 11:43:25;;;;;;;2.38;0.73;;;12.90;99.90;;;;;;5100248;28;20052;-54
2023/05/18 11:45:57;;;;;;;3.40;0.80;;;13.00;99.90;;;;;;5100481;28;20132;-55
2023/05/18 11:48:28;;;;;;;3.40;0.88;;;13.10;99.90;;;;;;5100301;28;20044;-53
2023/05/18 11:50:57;;;;;;;2.15;0.85;;;13.10;99.90;;;;;;5099169;28;20043;-54
2023/05/18 11:53:25;;;;;;;2.05;0.80;;;13.10;99.90;;;;;;5100218;28;20394;-55
2023/05/18 11:55:55;;;;;;;2.17;0.80;;;13.10;99.90;;;;;;5100289;28;20475;-54
2023/05/18 11:58:23;;;;;;;3.13;0.82;;;13.10;99.90;;;;;;5100313;28;20044;-56
2023/05/18 12:00:50;;;;;;;2.85;0.75;;;13.20;99.90;;;;;;5100345;28;20044;-55
2023/05/18 12:03:17;;;;;;;4.18;0.82;;;13.30;99.90;;;;;;5100113;28;20123;-54
2023/05/18 12:05:48;;;;;;;3.13;1.00;;;13.30;99.90;;;;;;5098912;28;20499;-55
2023/05/18 12:08:18;;;;;;;4.97;1.10;;;13.30;99.90;;;;;;5100304;28;20117;-54
2023/05/18 12:10:46;;;;;;;2.22;0.90;;;13.30;99.90;;;;;;5100261;28;20055;-55
2023/05/18 12:13:13;;;;;;;3.28;1.10;;;13.20;99.90;;;;;;5099098;28;20109;-54
2023/05/18 12:15:39;;;;;;;2.45;0.77;;;13.20;99.90;;;;;;5100088;28;20051;-53
2023/05/18 12:18:05;;;;;;;3.45;0.82;;;13.20;99.90;;;;;;5098880;28;20058;-53
2023/05/18 12:20:31;;;;;;;2.90;1.10;;;13.10;99.90;;;;;;5099869;28;20048;-54
2023/05/18 12:22:57;;;;;;;6.53;1.33;;;13.10;99.90;;;;;;5100035;28;20117;-55
2023/05/18 12:25:25;;;;;;;6.05;1.23;;;13.10;99.90;;;;;;5100160;28;20282;-55
2023/05/18 12:27:53;;;;;;;2.33;0.70;;;13.10;99.90;;;;;;5099265;28;20048;-55
2023/05/18 12:30:21;;;;;;;3.50;1.00;;;13.10;99.90;;;;;;5099858;28;20092;-55
2023/05/18 12:32:47;;;;;;;4.13;1.75;;;13.10;99.90;;;;;;5099877;28;20055;-54
2023/05/18 12:35:13;;;;;;;4.60;1.15;;;13.00;99.90;;;;;;5098450;28;20044;-55
2023/05/18 12:37:43;;;;;;;3.03;1.10;;;13.10;99.90;;;;;;5099683;28;20504;-51
2023/05/18 12:40:10;;;;;;;4.82;1.00;;;13.10;99.90;;;;;;5099890;28;20051;-47
2023/05/18 12:42:35;;;;;;;3.03;1.10;;;13.10;99.90;;;;;;5099837;28;20048;-54
2023/05/18 12:45:01;;;;;;;3.43;0.97;;;13.10;99.90;;;;;;5098782;28;20070;-53
2023/05/18 12:47:31;;;;;;;7.05;1.33;;;13.20;99.90;;;;;;5099660;28;20079;-55
2023/05/18 12:50:02;;;;;;;3.08;0.82;;;13.20;99.90;;;;;;5096019;28;20439;-48
2023/05/18 12:52:27;;;;;;;3.33;1.13;;;13.20;99.90;;;;;;5096833;28;20056;-55
2023/05/18 12:54:57;;;;;;;3.73;1.10;;;13.20;99.90;;;;;;5096501;28;20040;-56
2023/05/18 12:57:26;;;;;;;4.22;1.10;;;13.20;99.90;;;;;;5096517;28;20335;-54